createdAt,value
2022-10-18T00:05:14.558Z,20.31
2022-10-18T00:25:13.762Z,20.37
2022-10-18T00:45:14.503Z,20.34
2022-10-18T01:05:14.481Z,20.36
2022-10-18T01:25:13.697Z,20.34
2022-10-18T01:45:14.438Z,20.34
2022-10-18T02:05:14.419Z,20.37
2022-10-18T02:25:14.391Z,20.34
2022-10-18T02:45:14.378Z,20.36
2022-10-18T03:05:14.340Z,20.37
2022-10-18T03:25:14.325Z,20.31
2022-10-18T03:45:14.289Z,20.33
2022-10-18T04:05:14.276Z,20.36
2022-10-18T04:25:14.242Z,20.37
2022-10-18T04:45:14.237Z,20.36
2022-10-18T05:05:14.365Z,20.33
2022-10-18T05:25:14.165Z,20.35
2022-10-18T05:45:14.005Z,20.35
2022-10-18T06:05:14.148Z,20.35
2022-10-18T06:25:13.360Z,20.37
2022-10-18T06:45:14.081Z,20.3
2022-10-18T07:05:14.043Z,20.33
2022-10-18T07:25:14.015Z,20.35
2022-10-18T07:45:14.611Z,20.28
2022-10-18T08:05:13.992Z,20.27
2022-10-18T08:25:13.817Z,20.28
2022-10-18T08:45:29.959Z,20.33
2022-10-18T09:05:13.371Z,20.34
2022-10-18T09:25:13.738Z,20.31
2022-10-18T09:45:13.841Z,20.32
2022-10-18T10:05:13.823Z,20.32
2022-10-18T10:25:13.790Z,20.32
2022-10-18T10:45:13.759Z,20.31
2022-10-18T11:05:13.721Z,20.31
2022-10-18T11:25:13.693Z,20.32
2022-10-18T11:45:13.663Z,20.31
2022-10-18T12:05:24.688Z,20.31
2022-10-18T12:25:13.610Z,20.3
2022-10-18T12:45:13.573Z,20.3
2022-10-18T13:05:17.403Z,20.3
2022-10-18T13:25:13.522Z,20.29
2022-10-18T13:45:13.488Z,20.29
2022-10-18T14:05:24.426Z,20.29
2022-10-18T14:25:13.430Z,20.29
2022-10-18T14:45:13.408Z,20.28
2022-10-18T15:05:13.372Z,20.28
2022-10-18T15:45:13.311Z,20.28
2022-10-18T16:05:13.274Z,20.27
2022-10-18T16:25:12.471Z,20.27
2022-10-18T16:45:13.220Z,20.27
2022-10-18T17:05:13.206Z,20.27
2022-10-18T17:25:12.412Z,20.27
2022-10-18T17:45:13.146Z,20.28
2022-10-18T18:05:13.134Z,20.27
2022-10-18T18:25:12.981Z,20.27
2022-10-18T18:45:13.099Z,20.28
2022-10-18T19:05:13.169Z,20.28
2022-10-18T19:25:13.067Z,20.26
2022-10-18T19:45:13.053Z,20.26
2022-10-18T20:05:13.038Z,20.25
2022-10-18T20:25:13.025Z,20.26
2022-10-18T20:45:13.025Z,20.26
2022-10-18T21:25:12.995Z,20.25
2022-10-18T21:45:12.976Z,20.25
2022-10-18T22:05:12.448Z,20.25
2022-10-18T22:25:12.958Z,20.25
2022-10-18T22:45:12.954Z,20.25
2022-10-18T23:05:12.933Z,20.25
2022-10-18T23:25:12.932Z,20.25
2022-10-18T23:45:12.936Z,20.25
